sensor_id;sensor_type;location;lat;lon;timestamp;P1;durP1;ratioP1;P2;durP2;ratioP2
22965;SDS011;11649;48.090;9.754;2023-02-27T00:01:52;4.55;;;2.78;;
22965;SDS011;11649;48.090;9.754;2023-02-27T00:04:18;4.72;;;2.65;;
22965;SDS011;11649;48.090;9.754;2023-02-27T00:06:45;3.78;;;2.50;;
22965;SDS011;11649;48.090;9.754;2023-02-27T00:09:12;3.78;;;2.70;;
22965;SDS011;11649;48.090;9.754;2023-02-27T00:11:39;3.00;;;2.53;;
22965;SDS011;11649;48.090;9.754;2023-02-27T00:14:05;3.22;;;2.60;;
22965;SDS011;11649;48.090;9.754;2023-02-27T00:16:32;4.00;;;2.92;;
22965;SDS011;11649;48.090;9.754;2023-02-27T00:18:59;4.85;;;2.47;;
22965;SDS011;11649;48.090;9.754;2023-02-27T00:21:30;3.22;;;2.50;;
22965;SDS011;11649;48.090;9.754;2023-02-27T00:23:57;3.72;;;2.60;;
22965;SDS011;11649;48.090;9.754;2023-02-27T00:26:24;4.70;;;2.63;;
22965;SDS011;11649;48.090;9.754;2023-02-27T00:28:51;3.10;;;2.70;;
22965;SDS011;11649;48.090;9.754;2023-02-27T00:31:17;6.05;;;2.90;;
22965;SDS011;11649;48.090;9.754;2023-02-27T00:33:44;3.40;;;2.78;;
22965;SDS011;11649;48.090;9.754;2023-02-27T00:36:11;3.45;;;3.00;;
22965;SDS011;11649;48.090;9.754;2023-02-27T00:38:38;3.40;;;2.60;;
22965;SDS011;11649;48.090;9.754;2023-02-27T00:41:05;3.58;;;3.20;;
22965;SDS011;11649;48.090;9.754;2023-02-27T00:43:31;4.70;;;2.92;;
22965;SDS011;11649;48.090;9.754;2023-02-27T00:45:58;3.58;;;2.70;;
22965;SDS011;11649;48.090;9.754;2023-02-27T00:48:25;3.33;;;2.65;;
22965;SDS011;11649;48.090;9.754;2023-02-27T00:50:51;3.70;;;2.75;;
22965;SDS011;11649;48.090;9.754;2023-02-27T00:53:18;4.38;;;2.50;;
22965;SDS011;11649;48.090;9.754;2023-02-27T00:55:45;3.78;;;2.55;;
22965;SDS011;11649;48.090;9.754;2023-02-27T00:58:12;6.93;;;2.90;;
22965;SDS011;11649;48.090;9.754;2023-02-27T01:00:38;3.78;;;2.65;;
22965;SDS011;11649;48.090;9.754;2023-02-27T01:03:05;4.80;;;2.90;;
22965;SDS011;11649;48.090;9.754;2023-02-27T01:05:32;4.03;;;2.40;;
22965;SDS011;11649;48.090;9.754;2023-02-27T01:07:59;4.55;;;2.40;;
22965;SDS011;11649;48.090;9.754;2023-02-27T01:10:26;4.22;;;2.53;;
22965;SDS011;11649;48.090;9.754;2023-02-27T01:12:52;3.90;;;2.70;;
22965;SDS011;11649;48.090;9.754;2023-02-27T01:15:19;3.08;;;2.60;;
22965;SDS011;11649;48.090;9.754;2023-02-27T01:17:46;4.53;;;2.55;;
22965;SDS011;11649;48.090;9.754;2023-02-27T01:20:14;4.97;;;2.63;;
22965;SDS011;11649;48.090;9.754;2023-02-27T01:22:41;7.18;;;2.85;;
22965;SDS011;11649;48.090;9.754;2023-02-27T01:25:08;4.20;;;2.72;;
22965;SDS011;11649;48.090;9.754;2023-02-27T01:27:36;4.57;;;2.42;;
22965;SDS011;11649;48.090;9.754;2023-02-27T01:30:02;3.72;;;2.35;;
22965;SDS011;11649;48.090;9.754;2023-02-27T01:32:29;2.90;;;2.40;;
22965;SDS011;11649;48.090;9.754;2023-02-27T01:34:56;5.22;;;2.92;;
22965;SDS011;11649;48.090;9.754;2023-02-27T01:37:23;4.70;;;2.67;;
22965;SDS011;11649;48.090;9.754;2023-02-27T01:39:50;3.95;;;2.75;;
22965;SDS011;11649;48.090;9.754;2023-02-27T01:42:24;3.50;;;2.50;;
22965;SDS011;11649;48.090;9.754;2023-02-27T01:47:56;6.75;;;2.38;;
22965;SDS011;11649;48.090;9.754;2023-02-27T01:50:34;3.63;;;2.50;;
22965;SDS011;11649;48.090;9.754;2023-02-27T01:53:02;3.63;;;2.53;;
22965;SDS011;11649;48.090;9.754;2023-02-27T01:55:32;6.68;;;2.70;;
22965;SDS011;11649;48.090;9.754;2023-02-27T01:58:04;4.50;;;2.65;;
22965;SDS011;11649;48.090;9.754;2023-02-27T02:00:33;5.30;;;2.70;;
22965;SDS011;11649;48.090;9.754;2023-02-27T02:03:11;3.55;;;2.65;;
22965;SDS011;11649;48.090;9.754;2023-02-27T02:05:42;3.58;;;2.47;;
22965;SDS011;11649;48.090;9.754;2023-02-27T02:08:18;3.65;;;2.72;;
22965;SDS011;11649;48.090;9.754;2023-02-27T02:10:47;3.13;;;2.55;;
22965;SDS011;11649;48.090;9.754;2023-02-27T02:13:17;5.03;;;2.58;;
22965;SDS011;11649;48.090;9.754;2023-02-27T02:16:21;4.18;;;3.00;;
22965;SDS011;11649;48.090;9.754;2023-02-27T02:38:39;4.00;;;2.60;;
22965;SDS011;11649;48.090;9.754;2023-02-27T02:44:39;4.57;;;2.88;;
22965;SDS011;11649;48.090;9.754;2023-02-27T02:50:05;5.20;;;3.13;;
22965;SDS011;11649;48.090;9.754;2023-02-27T02:52:50;5.70;;;2.60;;
22965;SDS011;11649;48.090;9.754;2023-02-27T02:55:34;3.50;;;2.80;;
22965;SDS011;11649;48.090;9.754;2023-02-27T03:00:36;3.55;;;2.80;;
22965;SDS011;11649;48.090;9.754;2023-02-27T03:03:16;4.05;;;3.03;;
22965;SDS011;11649;48.090;9.754;2023-02-27T03:05:59;4.55;;;2.80;;
22965;SDS011;11649;48.090;9.754;2023-02-27T03:08:34;3.95;;;2.90;;
22965;SDS011;11649;48.090;9.754;2023-02-27T03:11:05;3.58;;;2.80;;
22965;SDS011;11649;48.090;9.754;2023-02-27T03:13:34;5.80;;;3.05;;
22965;SDS011;11649;48.090;9.754;2023-02-27T03:19:02;5.13;;;2.95;;
22965;SDS011;11649;48.090;9.754;2023-02-27T03:21:37;4.20;;;3.00;;
22965;SDS011;11649;48.090;9.754;2023-02-27T03:27:05;4.18;;;3.00;;
22965;SDS011;11649;48.090;9.754;2023-02-27T03:29:41;4.30;;;3.00;;
22965;SDS011;11649;48.090;9.754;2023-02-27T03:32:39;4.45;;;3.00;;
22965;SDS011;11649;48.090;9.754;2023-02-27T03:35:16;9.30;;;3.35;;
22965;SDS011;11649;48.090;9.754;2023-02-27T03:37:47;4.45;;;3.20;;
22965;SDS011;11649;48.090;9.754;2023-02-27T03:48:21;4.88;;;3.00;;
22965;SDS011;11649;48.090;9.754;2023-02-27T03:50:48;4.75;;;3.22;;
22965;SDS011;11649;48.090;9.754;2023-02-27T03:53:27;5.03;;;3.25;;
22965;SDS011;11649;48.090;9.754;2023-02-27T03:55:56;4.57;;;3.28;;
22965;SDS011;11649;48.090;9.754;2023-02-27T03:58:25;5.10;;;3.05;;
22965;SDS011;11649;48.090;9.754;2023-02-27T04:00:52;4.60;;;3.20;;
22965;SDS011;11649;48.090;9.754;2023-02-27T04:03:18;7.70;;;3.45;;
22965;SDS011;11649;48.090;9.754;2023-02-27T04:05:46;4.90;;;3.15;;
22965;SDS011;11649;48.090;9.754;2023-02-27T04:19:37;5.70;;;3.40;;
22965;SDS011;11649;48.090;9.754;2023-02-27T04:24:56;7.13;;;3.67;;
22965;SDS011;11649;48.090;9.754;2023-02-27T04:35:53;4.95;;;3.30;;
22965;SDS011;11649;48.090;9.754;2023-02-27T04:38:30;5.18;;;3.50;;
22965;SDS011;11649;48.090;9.754;2023-02-27T04:41:24;6.22;;;3.40;;
22965;SDS011;11649;48.090;9.754;2023-02-27T04:44:06;4.70;;;3.25;;
22965;SDS011;11649;48.090;9.754;2023-02-27T04:46:34;5.70;;;3.80;;
22965;SDS011;11649;48.090;9.754;2023-02-27T04:49:21;4.72;;;3.78;;
22965;SDS011;11649;48.090;9.754;2023-02-27T04:51:58;5.20;;;3.83;;
22965;SDS011;11649;48.090;9.754;2023-02-27T04:54:37;4.40;;;3.55;;
22965;SDS011;11649;48.090;9.754;2023-02-27T04:57:14;5.78;;;3.90;;
22965;SDS011;11649;48.090;9.754;2023-02-27T04:59:45;5.60;;;4.07;;
22965;SDS011;11649;48.090;9.754;2023-02-27T05:02:18;7.32;;;4.18;;
22965;SDS011;11649;48.090;9.754;2023-02-27T05:04:50;4.55;;;3.85;;
22965;SDS011;11649;48.090;9.754;2023-02-27T05:07:22;4.93;;;3.83;;
22965;SDS011;11649;48.090;9.754;2023-02-27T05:09:57;5.78;;;3.55;;
22965;SDS011;11649;48.090;9.754;2023-02-27T05:14:59;5.68;;;4.00;;
22965;SDS011;11649;48.090;9.754;2023-02-27T05:20:03;5.93;;;4.00;;
22965;SDS011;11649;48.090;9.754;2023-02-27T05:25:30;5.35;;;3.97;;
22965;SDS011;11649;48.090;9.754;2023-02-27T05:28:11;4.57;;;3.50;;
22965;SDS011;11649;48.090;9.754;2023-02-27T05:33:58;6.25;;;4.22;;
22965;SDS011;11649;48.090;9.754;2023-02-27T05:36:41;6.35;;;4.35;;
22965;SDS011;11649;48.090;9.754;2023-02-27T05:39:12;4.90;;;3.95;;
22965;SDS011;11649;48.090;9.754;2023-02-27T05:41:42;5.35;;;3.67;;
22965;SDS011;11649;48.090;9.754;2023-02-27T05:44:16;6.93;;;4.15;;
22965;SDS011;11649;48.090;9.754;2023-02-27T05:46:48;6.63;;;3.95;;
22965;SDS011;11649;48.090;9.754;2023-02-27T05:49:24;5.93;;;4.10;;
22965;SDS011;11649;48.090;9.754;2023-02-27T05:51:54;5.65;;;4.05;;
22965;SDS011;11649;48.090;9.754;2023-02-27T05:57:18;7.18;;;3.97;;
22965;SDS011;11649;48.090;9.754;2023-02-27T06:00:11;7.32;;;4.55;;
22965;SDS011;11649;48.090;9.754;2023-02-27T06:02:42;6.25;;;4.10;;
22965;SDS011;11649;48.090;9.754;2023-02-27T06:05:12;5.30;;;3.97;;
22965;SDS011;11649;48.090;9.754;2023-02-27T06:07:40;6.43;;;4.18;;
22965;SDS011;11649;48.090;9.754;2023-02-27T06:10:09;6.40;;;4.28;;
22965;SDS011;11649;48.090;9.754;2023-02-27T06:12:39;5.18;;;3.83;;
22965;SDS011;11649;48.090;9.754;2023-02-27T06:15:07;6.97;;;4.38;;
22965;SDS011;11649;48.090;9.754;2023-02-27T06:17:34;6.15;;;4.00;;
22965;SDS011;11649;48.090;9.754;2023-02-27T06:20:01;6.53;;;4.15;;
22965;SDS011;11649;48.090;9.754;2023-02-27T06:22:28;6.28;;;4.05;;
22965;SDS011;11649;48.090;9.754;2023-02-27T06:24:55;6.78;;;4.32;;
22965;SDS011;11649;48.090;9.754;2023-02-27T06:27:22;5.53;;;3.90;;
22965;SDS011;11649;48.090;9.754;2023-02-27T06:29:48;5.57;;;4.15;;
22965;SDS011;11649;48.090;9.754;2023-02-27T06:32:15;6.63;;;4.30;;
22965;SDS011;11649;48.090;9.754;2023-02-27T06:34:42;6.03;;;3.85;;
22965;SDS011;11649;48.090;9.754;2023-02-27T06:37:09;5.38;;;4.18;;
22965;SDS011;11649;48.090;9.754;2023-02-27T06:39:35;5.63;;;4.15;;
22965;SDS011;11649;48.090;9.754;2023-02-27T06:42:03;5.35;;;4.03;;
22965;SDS011;11649;48.090;9.754;2023-02-27T06:44:30;7.28;;;4.40;;
22965;SDS011;11649;48.090;9.754;2023-02-27T06:46:57;5.97;;;3.95;;
22965;SDS011;11649;48.090;9.754;2023-02-27T06:49:23;6.55;;;3.75;;
22965;SDS011;11649;48.090;9.754;2023-02-27T06:51:50;6.70;;;3.95;;
22965;SDS011;11649;48.090;9.754;2023-02-27T06:54:17;4.93;;;3.67;;
22965;SDS011;11649;48.090;9.754;2023-02-27T06:56:45;5.13;;;3.70;;
22965;SDS011;11649;48.090;9.754;2023-02-27T06:59:13;7.32;;;3.95;;
22965;SDS011;11649;48.090;9.754;2023-02-27T07:01:40;6.32;;;3.92;;
22965;SDS011;11649;48.090;9.754;2023-02-27T07:04:07;7.03;;;3.83;;
22965;SDS011;11649;48.090;9.754;2023-02-27T07:06:37;7.10;;;4.10;;
22965;SDS011;11649;48.090;9.754;2023-02-27T07:09:24;5.45;;;3.70;;
22965;SDS011;11649;48.090;9.754;2023-02-27T07:11:51;7.47;;;4.15;;
22965;SDS011;11649;48.090;9.754;2023-02-27T07:14:18;6.90;;;4.35;;
22965;SDS011;11649;48.090;9.754;2023-02-27T07:16:45;8.80;;;4.60;;
22965;SDS011;11649;48.090;9.754;2023-02-27T07:19:16;6.63;;;4.22;;
22965;SDS011;11649;48.090;9.754;2023-02-27T07:21:43;7.95;;;4.25;;
22965;SDS011;11649;48.090;9.754;2023-02-27T07:24:10;7.38;;;4.43;;
22965;SDS011;11649;48.090;9.754;2023-02-27T07:26:37;6.68;;;4.40;;
22965;SDS011;11649;48.090;9.754;2023-02-27T07:29:04;5.80;;;4.70;;
22965;SDS011;11649;48.090;9.754;2023-02-27T07:31:31;7.45;;;4.68;;
22965;SDS011;11649;48.090;9.754;2023-02-27T07:33:58;8.80;;;4.90;;
22965;SDS011;11649;48.090;9.754;2023-02-27T07:36:25;8.05;;;4.68;;
22965;SDS011;11649;48.090;9.754;2023-02-27T07:38:53;7.53;;;4.40;;
22965;SDS011;11649;48.090;9.754;2023-02-27T07:41:19;9.55;;;4.50;;
22965;SDS011;11649;48.090;9.754;2023-02-27T07:43:55;6.43;;;4.70;;
22965;SDS011;11649;48.090;9.754;2023-02-27T07:46:22;6.55;;;4.50;;
22965;SDS011;11649;48.090;9.754;2023-02-27T07:48:52;8.00;;;5.00;;
22965;SDS011;11649;48.090;9.754;2023-02-27T07:51:20;5.97;;;4.60;;
22965;SDS011;11649;48.090;9.754;2023-02-27T07:53:47;8.93;;;4.40;;
22965;SDS011;11649;48.090;9.754;2023-02-27T07:56:13;7.00;;;4.30;;
22965;SDS011;11649;48.090;9.754;2023-02-27T07:58:40;5.93;;;4.70;;
22965;SDS011;11649;48.090;9.754;2023-02-27T08:01:07;8.35;;;4.65;;
22965;SDS011;11649;48.090;9.754;2023-02-27T08:03:33;9.40;;;4.65;;
22965;SDS011;11649;48.090;9.754;2023-02-27T08:06:00;7.70;;;4.55;;
22965;SDS011;11649;48.090;9.754;2023-02-27T08:08:27;8.18;;;4.60;;
22965;SDS011;11649;48.090;9.754;2023-02-27T08:10:54;6.03;;;4.05;;
22965;SDS011;11649;48.090;9.754;2023-02-27T08:13:21;7.53;;;4.43;;
22965;SDS011;11649;48.090;9.754;2023-02-27T08:16:08;6.32;;;4.38;;
22965;SDS011;11649;48.090;9.754;2023-02-27T08:18:35;6.85;;;4.40;;
22965;SDS011;11649;48.090;9.754;2023-02-27T08:21:02;7.28;;;4.53;;
22965;SDS011;11649;48.090;9.754;2023-02-27T08:23:30;6.50;;;4.32;;
22965;SDS011;11649;48.090;9.754;2023-02-27T08:26:00;10.88;;;4.40;;
22965;SDS011;11649;48.090;9.754;2023-02-27T08:28:27;7.93;;;4.65;;
22965;SDS011;11649;48.090;9.754;2023-02-27T08:30:54;9.02;;;4.63;;
22965;SDS011;11649;48.090;9.754;2023-02-27T08:33:21;8.32;;;4.82;;
22965;SDS011;11649;48.090;9.754;2023-02-27T08:35:49;7.80;;;4.60;;
22965;SDS011;11649;48.090;9.754;2023-02-27T08:38:16;8.13;;;4.60;;
22965;SDS011;11649;48.090;9.754;2023-02-27T08:40:43;7.53;;;4.45;;
22965;SDS011;11649;48.090;9.754;2023-02-27T08:43:10;7.38;;;4.47;;
22965;SDS011;11649;48.090;9.754;2023-02-27T08:45:36;5.80;;;4.32;;
22965;SDS011;11649;48.090;9.754;2023-02-27T08:48:03;6.47;;;4.50;;
22965;SDS011;11649;48.090;9.754;2023-02-27T08:50:30;6.22;;;4.40;;
22965;SDS011;11649;48.090;9.754;2023-02-27T08:52:57;7.88;;;4.57;;
22965;SDS011;11649;48.090;9.754;2023-02-27T08:55:24;10.02;;;4.57;;
22965;SDS011;11649;48.090;9.754;2023-02-27T08:57:51;7.70;;;4.63;;
22965;SDS011;11649;48.090;9.754;2023-02-27T09:00:17;6.22;;;4.10;;
22965;SDS011;11649;48.090;9.754;2023-02-27T09:02:45;6.07;;;4.53;;
22965;SDS011;11649;48.090;9.754;2023-02-27T09:05:11;7.03;;;4.60;;
22965;SDS011;11649;48.090;9.754;2023-02-27T09:07:38;6.70;;;4.32;;
22965;SDS011;11649;48.090;9.754;2023-02-27T09:10:05;7.45;;;4.68;;
22965;SDS011;11649;48.090;9.754;2023-02-27T09:12:32;7.43;;;4.45;;
22965;SDS011;11649;48.090;9.754;2023-02-27T09:14:59;7.70;;;4.80;;
22965;SDS011;11649;48.090;9.754;2023-02-27T09:17:26;8.57;;;4.55;;
22965;SDS011;11649;48.090;9.754;2023-02-27T09:19:52;8.50;;;4.82;;
22965;SDS011;11649;48.090;9.754;2023-02-27T09:22:22;5.82;;;4.15;;
22965;SDS011;11649;48.090;9.754;2023-02-27T09:24:50;5.40;;;4.15;;
22965;SDS011;11649;48.090;9.754;2023-02-27T09:27:16;6.60;;;4.35;;
22965;SDS011;11649;48.090;9.754;2023-02-27T09:29:43;7.13;;;4.25;;
22965;SDS011;11649;48.090;9.754;2023-02-27T09:32:10;6.13;;;4.10;;
22965;SDS011;11649;48.090;9.754;2023-02-27T09:34:37;7.22;;;3.90;;
22965;SDS011;11649;48.090;9.754;2023-02-27T09:37:04;6.88;;;3.85;;
22965;SDS011;11649;48.090;9.754;2023-02-27T09:39:31;7.82;;;4.30;;
22965;SDS011;11649;48.090;9.754;2023-02-27T09:44:40;8.48;;;4.00;;
22965;SDS011;11649;48.090;9.754;2023-02-27T09:47:34;9.48;;;4.85;;
22965;SDS011;11649;48.090;9.754;2023-02-27T09:50:17;8.18;;;4.40;;
22965;SDS011;11649;48.090;9.754;2023-02-27T09:53:03;6.60;;;4.10;;
22965;SDS011;11649;48.090;9.754;2023-02-27T09:55:32;6.88;;;3.90;;
22965;SDS011;11649;48.090;9.754;2023-02-27T09:58:09;8.90;;;4.15;;
22965;SDS011;11649;48.090;9.754;2023-02-27T10:01:18;7.07;;;4.25;;
22965;SDS011;11649;48.090;9.754;2023-02-27T10:04:03;7.65;;;4.18;;
22965;SDS011;11649;48.090;9.754;2023-02-27T10:06:47;5.22;;;3.20;;
22965;SDS011;11649;48.090;9.754;2023-02-27T10:12:57;6.43;;;4.32;;
22965;SDS011;11649;48.090;9.754;2023-02-27T10:15:09;5.68;;;3.90;;
22965;SDS011;11649;48.090;9.754;2023-02-27T10:17:38;6.88;;;3.88;;
22965;SDS011;11649;48.090;9.754;2023-02-27T10:20:21;7.78;;;4.05;;
22965;SDS011;11649;48.090;9.754;2023-02-27T10:22:59;8.48;;;4.03;;
22965;SDS011;11649;48.090;9.754;2023-02-27T10:25:29;6.75;;;3.92;;
22965;SDS011;11649;48.090;9.754;2023-02-27T10:28:07;5.38;;;3.90;;
22965;SDS011;11649;48.090;9.754;2023-02-27T10:30:38;6.05;;;3.85;;
22965;SDS011;11649;48.090;9.754;2023-02-27T10:33:25;5.78;;;3.90;;
22965;SDS011;11649;48.090;9.754;2023-02-27T10:35:53;7.35;;;4.47;;
22965;SDS011;11649;48.090;9.754;2023-02-27T10:38:36;9.38;;;4.30;;
22965;SDS011;11649;48.090;9.754;2023-02-27T10:41:10;7.75;;;4.00;;
22965;SDS011;11649;48.090;9.754;2023-02-27T10:43:39;7.10;;;4.45;;
22965;SDS011;11649;48.090;9.754;2023-02-27T10:46:13;6.50;;;4.28;;
22965;SDS011;11649;48.090;9.754;2023-02-27T10:48:54;7.00;;;4.45;;
22965;SDS011;11649;48.090;9.754;2023-02-27T10:51:29;7.28;;;4.32;;
22965;SDS011;11649;48.090;9.754;2023-02-27T10:56:53;6.25;;;4.28;;
22965;SDS011;11649;48.090;9.754;2023-02-27T10:59:23;6.25;;;4.28;;
22965;SDS011;11649;48.090;9.754;2023-02-27T11:04:45;6.03;;;3.95;;
22965;SDS011;11649;48.090;9.754;2023-02-27T11:07:14;6.25;;;3.13;;
22965;SDS011;11649;48.090;9.754;2023-02-27T11:09:43;5.55;;;3.95;;
22965;SDS011;11649;48.090;9.754;2023-02-27T11:13:00;5.88;;;3.83;;
22965;SDS011;11649;48.090;9.754;2023-02-27T11:15:28;7.05;;;3.88;;
22965;SDS011;11649;48.090;9.754;2023-02-27T11:20:43;6.03;;;3.95;;
22965;SDS011;11649;48.090;9.754;2023-02-27T11:25:43;6.97;;;3.88;;
22965;SDS011;11649;48.090;9.754;2023-02-27T11:28:19;7.28;;;4.28;;
22965;SDS011;11649;48.090;9.754;2023-02-27T11:31:05;7.70;;;4.40;;
22965;SDS011;11649;48.090;9.754;2023-02-27T11:33:53;6.68;;;4.00;;
22965;SDS011;11649;48.090;9.754;2023-02-27T11:36:21;6.25;;;3.90;;
22965;SDS011;11649;48.090;9.754;2023-02-27T11:38:49;6.68;;;4.10;;
22965;SDS011;11649;48.090;9.754;2023-02-27T11:41:31;9.32;;;3.88;;
22965;SDS011;11649;48.090;9.754;2023-02-27T11:44:00;4.80;;;3.65;;
22965;SDS011;11649;48.090;9.754;2023-02-27T11:46:28;6.03;;;4.13;;
22965;SDS011;11649;48.090;9.754;2023-02-27T11:49:31;5.95;;;3.70;;
22965;SDS011;11649;48.090;9.754;2023-02-27T11:52:11;7.95;;;3.88;;
22965;SDS011;11649;48.090;9.754;2023-02-27T11:54:53;7.38;;;4.22;;
22965;SDS011;11649;48.090;9.754;2023-02-27T11:57:23;7.65;;;4.15;;
22965;SDS011;11649;48.090;9.754;2023-02-27T11:59:55;5.95;;;3.90;;
22965;SDS011;11649;48.090;9.754;2023-02-27T12:02:31;6.32;;;4.10;;
22965;SDS011;11649;48.090;9.754;2023-02-27T12:05:14;12.77;;;3.85;;
22965;SDS011;11649;48.090;9.754;2023-02-27T12:07:51;5.40;;;4.00;;
22965;SDS011;11649;48.090;9.754;2023-02-27T12:10:29;8.98;;;4.30;;
22965;SDS011;11649;48.090;9.754;2023-02-27T12:13:12;6.15;;;4.20;;
22965;SDS011;11649;48.090;9.754;2023-02-27T12:15:53;5.90;;;4.43;;
22965;SDS011;11649;48.090;9.754;2023-02-27T12:21:16;6.55;;;4.55;;
22965;SDS011;11649;48.090;9.754;2023-02-27T12:23:46;7.75;;;4.15;;
22965;SDS011;11649;48.090;9.754;2023-02-27T12:26:36;7.32;;;4.05;;
22965;SDS011;11649;48.090;9.754;2023-02-27T12:29:20;6.78;;;4.00;;
22965;SDS011;11649;48.090;9.754;2023-02-27T12:32:37;6.15;;;3.80;;
22965;SDS011;11649;48.090;9.754;2023-02-27T12:34:49;7.05;;;4.03;;
22965;SDS011;11649;48.090;9.754;2023-02-27T12:37:22;8.57;;;4.30;;
22965;SDS011;11649;48.090;9.754;2023-02-27T12:39:51;9.40;;;4.05;;
22965;SDS011;11649;48.090;9.754;2023-02-27T12:42:26;6.15;;;4.25;;
22965;SDS011;11649;48.090;9.754;2023-02-27T12:47:59;6.10;;;3.40;;
22965;SDS011;11649;48.090;9.754;2023-02-27T12:50:33;5.88;;;3.70;;
22965;SDS011;11649;48.090;9.754;2023-02-27T12:55:58;5.35;;;3.80;;
22965;SDS011;11649;48.090;9.754;2023-02-27T12:58:37;4.97;;;3.55;;
22965;SDS011;11649;48.090;9.754;2023-02-27T13:04:17;6.00;;;3.70;;
22965;SDS011;11649;48.090;9.754;2023-02-27T13:06:59;6.90;;;4.07;;
22965;SDS011;11649;48.090;9.754;2023-02-27T13:20:31;5.20;;;3.50;;
22965;SDS011;11649;48.090;9.754;2023-02-27T13:23:23;5.22;;;3.70;;
22965;SDS011;11649;48.090;9.754;2023-02-27T13:25:57;4.80;;;3.47;;
22965;SDS011;11649;48.090;9.754;2023-02-27T13:28:26;6.63;;;3.45;;
22965;SDS011;11649;48.090;9.754;2023-02-27T13:31:09;6.72;;;3.60;;
22965;SDS011;11649;48.090;9.754;2023-02-27T13:36:31;4.50;;;3.33;;
22965;SDS011;11649;48.090;9.754;2023-02-27T13:39:23;5.72;;;3.65;;
22965;SDS011;11649;48.090;9.754;2023-02-27T13:42:08;6.07;;;3.30;;
22965;SDS011;11649;48.090;9.754;2023-02-27T13:45:00;4.47;;;3.40;;
22965;SDS011;11649;48.090;9.754;2023-02-27T13:49:59;4.00;;;3.28;;
22965;SDS011;11649;48.090;9.754;2023-02-27T13:54:56;4.05;;;3.30;;
22965;SDS011;11649;48.090;9.754;2023-02-27T13:57:36;5.90;;;3.55;;
22965;SDS011;11649;48.090;9.754;2023-02-27T14:00:05;5.25;;;3.40;;
22965;SDS011;11649;48.090;9.754;2023-02-27T14:02:50;5.72;;;3.80;;
22965;SDS011;11649;48.090;9.754;2023-02-27T14:05:29;5.38;;;3.20;;
22965;SDS011;11649;48.090;9.754;2023-02-27T14:10:39;5.57;;;3.40;;
22965;SDS011;11649;48.090;9.754;2023-02-27T14:24:25;8.50;;;3.70;;
22965;SDS011;11649;48.090;9.754;2023-02-27T14:27:03;6.65;;;3.85;;
22965;SDS011;11649;48.090;9.754;2023-02-27T14:29:49;5.25;;;3.15;;
22965;SDS011;11649;48.090;9.754;2023-02-27T14:32:20;8.55;;;3.22;;
22965;SDS011;11649;48.090;9.754;2023-02-27T14:34:54;4.75;;;3.38;;
22965;SDS011;11649;48.090;9.754;2023-02-27T14:37:22;5.30;;;3.42;;
22965;SDS011;11649;48.090;9.754;2023-02-27T14:39:52;6.20;;;3.22;;
22965;SDS011;11649;48.090;9.754;2023-02-27T14:44:56;4.32;;;2.97;;
22965;SDS011;11649;48.090;9.754;2023-02-27T14:47:26;4.07;;;2.67;;
22965;SDS011;11649;48.090;9.754;2023-02-27T14:49:57;3.17;;;2.40;;
22965;SDS011;11649;48.090;9.754;2023-02-27T14:52:27;4.45;;;2.72;;
22965;SDS011;11649;48.090;9.754;2023-02-27T14:55:10;4.95;;;2.72;;
22965;SDS011;11649;48.090;9.754;2023-02-27T14:57:52;6.55;;;3.00;;
22965;SDS011;11649;48.090;9.754;2023-02-27T15:00:33;5.03;;;3.08;;
22965;SDS011;11649;48.090;9.754;2023-02-27T15:03:09;4.23;;;2.30;;
22965;SDS011;11649;48.090;9.754;2023-02-27T15:05:44;4.20;;;2.72;;
22965;SDS011;11649;48.090;9.754;2023-02-27T15:08:17;4.15;;;3.00;;
22965;SDS011;11649;48.090;9.754;2023-02-27T15:10:54;3.72;;;2.60;;
22965;SDS011;11649;48.090;9.754;2023-02-27T15:16:16;4.85;;;3.08;;
22965;SDS011;11649;48.090;9.754;2023-02-27T15:18:46;4.65;;;2.83;;
22965;SDS011;11649;48.090;9.754;2023-02-27T15:21:16;4.63;;;2.80;;
22965;SDS011;11649;48.090;9.754;2023-02-27T15:23:52;6.07;;;3.10;;
22965;SDS011;11649;48.090;9.754;2023-02-27T15:26:27;9.85;;;3.20;;
22965;SDS011;11649;48.090;9.754;2023-02-27T15:28:56;4.72;;;2.90;;
22965;SDS011;11649;48.090;9.754;2023-02-27T15:31:25;4.13;;;2.90;;
22965;SDS011;11649;48.090;9.754;2023-02-27T15:33:57;7.55;;;3.45;;
22965;SDS011;11649;48.090;9.754;2023-02-27T15:36:32;4.75;;;2.85;;
22965;SDS011;11649;48.090;9.754;2023-02-27T15:39:14;4.90;;;3.05;;
22965;SDS011;11649;48.090;9.754;2023-02-27T15:41:50;6.55;;;3.33;;
22965;SDS011;11649;48.090;9.754;2023-02-27T15:44:19;5.03;;;2.90;;
22965;SDS011;11649;48.090;9.754;2023-02-27T15:46:51;4.72;;;2.90;;
22965;SDS011;11649;48.090;9.754;2023-02-27T15:49:23;6.43;;;3.20;;
22965;SDS011;11649;48.090;9.754;2023-02-27T15:51:56;4.95;;;3.00;;
22965;SDS011;11649;48.090;9.754;2023-02-27T15:54:30;4.00;;;3.10;;
22965;SDS011;11649;48.090;9.754;2023-02-27T15:56:58;8.43;;;3.00;;
22965;SDS011;11649;48.090;9.754;2023-02-27T15:59:26;5.25;;;3.22;;
22965;SDS011;11649;48.090;9.754;2023-02-27T16:01:57;5.82;;;2.90;;
22965;SDS011;11649;48.090;9.754;2023-02-27T16:04:25;4.38;;;2.75;;
22965;SDS011;11649;48.090;9.754;2023-02-27T16:06:57;6.22;;;3.30;;
22965;SDS011;11649;48.090;9.754;2023-02-27T16:09:33;4.78;;;3.08;;
22965;SDS011;11649;48.090;9.754;2023-02-27T16:12:18;5.68;;;3.28;;
22965;SDS011;11649;48.090;9.754;2023-02-27T16:14:48;6.53;;;3.13;;
22965;SDS011;11649;48.090;9.754;2023-02-27T16:17:22;4.60;;;2.70;;
22965;SDS011;11649;48.090;9.754;2023-02-27T16:19:58;7.22;;;4.00;;
22965;SDS011;11649;48.090;9.754;2023-02-27T16:22:27;5.78;;;3.20;;
22965;SDS011;11649;48.090;9.754;2023-02-27T16:25:06;7.85;;;3.40;;
22965;SDS011;11649;48.090;9.754;2023-02-27T16:27:35;5.07;;;3.50;;
22965;SDS011;11649;48.090;9.754;2023-02-27T16:30:07;4.45;;;3.00;;
22965;SDS011;11649;48.090;9.754;2023-02-27T16:32:39;5.20;;;3.20;;
22965;SDS011;11649;48.090;9.754;2023-02-27T16:35:16;5.10;;;3.10;;
22965;SDS011;11649;48.090;9.754;2023-02-27T16:37:45;6.57;;;3.30;;
22965;SDS011;11649;48.090;9.754;2023-02-27T16:40:14;7.55;;;3.30;;
22965;SDS011;11649;48.090;9.754;2023-02-27T16:42:49;5.82;;;3.30;;
22965;SDS011;11649;48.090;9.754;2023-02-27T16:45:18;3.88;;;2.88;;
22965;SDS011;11649;48.090;9.754;2023-02-27T16:47:50;5.30;;;3.10;;
22965;SDS011;11649;48.090;9.754;2023-02-27T16:52:56;7.53;;;4.53;;
22965;SDS011;11649;48.090;9.754;2023-02-27T16:55:23;6.55;;;4.13;;
22965;SDS011;11649;48.090;9.754;2023-02-27T16:57:51;7.40;;;4.07;;
22965;SDS011;11649;48.090;9.754;2023-02-27T17:00:18;8.10;;;3.92;;
22965;SDS011;11649;48.090;9.754;2023-02-27T17:02:47;4.70;;;3.17;;
22965;SDS011;11649;48.090;9.754;2023-02-27T17:05:14;5.13;;;2.95;;
22965;SDS011;11649;48.090;9.754;2023-02-27T17:07:42;4.32;;;3.10;;
22965;SDS011;11649;48.090;9.754;2023-02-27T17:10:12;4.88;;;3.03;;
22965;SDS011;11649;48.090;9.754;2023-02-27T17:12:41;5.97;;;3.60;;
22965;SDS011;11649;48.090;9.754;2023-02-27T17:15:09;7.00;;;3.65;;
22965;SDS011;11649;48.090;9.754;2023-02-27T17:17:36;4.80;;;3.03;;
22965;SDS011;11649;48.090;9.754;2023-02-27T17:20:03;9.77;;;3.60;;
22965;SDS011;11649;48.090;9.754;2023-02-27T17:22:35;10.48;;;4.82;;
22965;SDS011;11649;48.090;9.754;2023-02-27T17:25:04;5.60;;;3.40;;
22965;SDS011;11649;48.090;9.754;2023-02-27T17:27:32;5.43;;;3.47;;
22965;SDS011;11649;48.090;9.754;2023-02-27T17:29:59;3.92;;;3.03;;
22965;SDS011;11649;48.090;9.754;2023-02-27T17:32:26;6.25;;;3.83;;
22965;SDS011;11649;48.090;9.754;2023-02-27T17:34:53;4.80;;;3.08;;
22965;SDS011;11649;48.090;9.754;2023-02-27T17:37:21;7.05;;;2.85;;
22965;SDS011;11649;48.090;9.754;2023-02-27T17:39:48;3.80;;;3.10;;
22965;SDS011;11649;48.090;9.754;2023-02-27T17:42:16;5.07;;;3.38;;
22965;SDS011;11649;48.090;9.754;2023-02-27T17:44:44;5.78;;;3.35;;
22965;SDS011;11649;48.090;9.754;2023-02-27T17:47:11;5.35;;;3.08;;
22965;SDS011;11649;48.090;9.754;2023-02-27T17:49:39;5.78;;;2.90;;